Главная страница
METAR-TAF:

METAR-TAF

Аэропорты :

Сайпан, Марианские острова, США

широта: 15-07N, долгота: 145-44E, высота над уровнем моря: 66 м

Текущие метеонаблюдения

Эта сводка был подготовлена 38 минут назад, в 16:54 UTC
Ветер 5 Узел от восточный
Температура 26°C
Влажность 79%
Давление 1014 hPa
Видимость: 16.1 км
небольшая облачность на высоте 3200 фута

METAR: PGSN 141654Z 09005KT 10SM FEW032 26/22 A2993 RMK AO2 SLP157 T02560217 $

Время: 03:32 (17:32 UTC)

Прогноз

Эта сводка был подготовлена 6 часа и 6 минут назад, в 11:26 UTC
Прогноз действительный с 14-го 12 UTC до 15-го 12 UTC
Ветер 10 Узел от восточный
Видимость: 10 км
небольшая облачность на высоте 2200 фута
Отдельные облака на высоте 4000 фута
ливни в окрестностях
С 15-го 0100 UTC
Ветер 13 Узел от восточный
Видимость: 10 км
Отдельные облака на высоте 2200 фута
Отдельные облака на высоте 4000 фута
ливни в окрестностях,

TAF: PGSN 141126Z 1412/1512 09010KT P6SM VCSH FEW022 SCT040 FM150100 08013KT P6SM VCSH SCT022 SCT040

Метеонаблюдения и прогнозы для более 4000 аэропортов (сводки METAR и TAF).

Имеющиеся станции представлены на карте желтыми и красными точками.

Чтобы увидеть название станции, наведите на нее мышь.

Затем щелкните, чтобы увидеть метеонаблюдения и метеопрогнозы.

Управление картой: чтобы увеличить масштаб, щелкните зеленые кнопки с черным крестиком; чтобы уменьшить масштаб, щелкните зеленую кнопку с тире; для просмотра соседних карт щелкайте зеленые стрелки.


METAR-TAF: